Time;durP1;ratioP1;P1;durP2;ratioP2;P2;SDS_P1;SDS_P2;PMS_P1;PMS_P2;Temp;Humidity;BMP_temperature;BMP_pressure;BME280_temperature;BME280_humidity;BME280_pressure;Samples;Min_cycle;Max_cycle;Signal;HPM_P1;HPM_P2
2022/10/09 00:01:54;;;;;;;10.18;6.22;;;9.70;99.90;;;;;;5079868;27;20646;-58
2022/10/09 00:04:19;;;;;;;7.47;6.35;;;9.70;99.90;;;;;;5024519;27;20049;-57
2022/10/09 00:06:45;;;;;;;11.93;6.30;;;9.70;99.90;;;;;;5083883;27;20017;-58
2022/10/09 00:09:10;;;;;;;9.77;6.63;;;9.70;99.90;;;;;;5021075;28;20057;-58
2022/10/09 00:11:36;;;;;;;7.88;6.60;;;9.70;99.90;;;;;;5054199;27;20547;-55
2022/10/09 00:14:02;;;;;;;8.70;6.57;;;9.60;99.90;;;;;;5022840;28;20474;-58
2022/10/09 00:16:28;;;;;;;11.40;7.13;;;9.60;99.90;;;;;;5081995;27;20030;-59
2022/10/09 00:18:54;;;;;;;13.38;8.02;;;9.60;99.90;;;;;;5026923;27;20380;-59
2022/10/09 00:21:40;;;;;;;8.88;7.10;;;9.60;99.90;;;;;;5069160;27;20019;-59
2022/10/09 00:24:06;;;;;;;12.13;7.63;;;9.50;99.90;;;;;;5024937;27;20537;-60
2022/10/09 00:26:32;;;;;;;9.27;7.43;;;9.50;99.90;;;;;;5069778;27;20041;-58
2022/10/09 00:28:57;;;;;;;9.55;7.97;;;9.40;99.90;;;;;;5037433;27;20844;-58
2022/10/09 00:31:23;;;;;;;10.90;8.20;;;9.40;99.90;;;;;;5056096;27;20019;-57
2022/10/09 00:33:49;;;;;;;11.23;8.27;;;9.40;99.90;;;;;;5051654;27;20779;-57
2022/10/09 00:36:17;;;;;;;12.75;8.15;;;9.40;99.90;;;;;;5042100;27;20015;-58
2022/10/09 00:38:43;;;;;;;13.50;8.55;;;9.40;99.90;;;;;;5063337;27;20025;-58
2022/10/09 00:41:13;;;;;;;11.40;8.05;;;9.40;99.90;;;;;;5029927;27;20502;-57
2022/10/09 00:43:46;;;;;;;9.90;8.05;;;9.40;99.90;;;;;;5073019;27;20132;-56
2022/10/09 00:46:21;;;;;;;11.85;9.52;;;9.40;99.90;;;;;;5028400;27;20025;-59
2022/10/09 00:48:58;;;;;;;12.55;9.00;;;9.30;99.90;;;;;;5062319;27;20027;-59
2022/10/09 00:51:24;;;;;;;11.82;8.93;;;9.30;99.90;;;;;;5117753;27;20475;-58
2022/10/09 00:53:50;;;;;;;13.35;8.85;;;9.30;99.90;;;;;;5067526;27;20108;-57
2022/10/09 00:56:16;;;;;;;12.90;8.77;;;9.30;99.90;;;;;;5117132;27;20032;-58
2022/10/09 00:58:41;;;;;;;10.98;7.93;;;9.30;99.90;;;;;;5066768;27;20019;-60
2022/10/09 01:01:07;;;;;;;11.20;8.15;;;9.30;99.90;;;;;;5124244;27;20106;-58
2022/10/09 01:03:32;;;;;;;10.63;7.78;;;9.20;99.90;;;;;;5084749;27;20096;-59
2022/10/09 01:06:13;;;;;;;9.68;7.38;;;9.20;99.90;;;;;;5021215;28;20041;-58
2022/10/09 01:09:00;;;;;;;8.93;7.40;;;9.20;99.90;;;;;;5085634;27;20048;-59
2022/10/09 01:11:57;;;;;;;9.70;7.30;;;9.20;99.90;;;;;;5023151;28;20026;-59
2022/10/09 01:14:38;;;;;;;7.95;6.50;;;9.20;99.90;;;;;;5054684;27;20047;-60
2022/10/09 01:17:12;;;;;;;11.48;7.38;;;9.20;99.90;;;;;;5117701;27;20426;-60
2022/10/09 01:20:15;;;;;;;10.30;6.93;;;9.20;99.90;;;;;;5066316;27;20100;-60
2022/10/09 01:23:19;;;;;;;9.23;6.88;;;9.10;99.90;;;;;;5108897;27;20027;-60
2022/10/09 01:26:09;;;;;;;10.50;6.10;;;9.10;99.90;;;;;;5103652;27;20035;-60
2022/10/09 01:28:37;;;;;;;6.25;5.50;;;9.10;99.90;;;;;;5076518;27;20100;-59
2022/10/09 01:31:06;;;;;;;9.85;6.28;;;9.00;99.90;;;;;;5109867;27;20065;-60
2022/10/09 01:33:32;;;;;;;7.97;6.00;;;9.00;99.90;;;;;;5097032;27;20381;-59
2022/10/09 01:36:00;;;;;;;8.27;6.15;;;9.00;99.90;;;;;;5047402;27;20109;-60
2022/10/09 01:38:27;;;;;;;11.90;6.60;;;9.00;99.90;;;;;;5047306;27;20019;-60
2022/10/09 01:40:53;;;;;;;8.45;5.63;;;9.00;99.90;;;;;;5057486;27;20036;-59
2022/10/09 01:43:19;;;;;;;10.20;5.63;;;9.00;99.90;;;;;;5033912;27;20022;-57
2022/10/09 01:45:46;;;;;;;11.63;5.88;;;9.00;99.90;;;;;;5071367;27;20482;-58
2022/10/09 01:48:18;;;;;;;9.48;6.07;;;9.00;99.90;;;;;;5026868;28;20096;-58
2022/10/09 01:50:50;;;;;;;10.85;6.07;;;9.00;99.90;;;;;;5079019;27;20081;-59
2022/10/09 01:53:18;;;;;;;6.68;5.15;;;9.00;99.90;;;;;;5027516;27;20062;-59
2022/10/09 01:56:06;;;;;;;10.55;6.53;;;8.90;99.90;;;;;;5079114;27;20485;-60
2022/10/09 01:58:40;;;;;;;8.40;5.63;;;8.90;99.90;;;;;;5026545;28;20042;-60
2022/10/09 02:01:13;;;;;;;9.30;5.53;;;8.90;99.90;;;;;;5065656;28;20034;-59
2022/10/09 02:03:41;;;;;;;7.60;5.28;;;8.80;99.90;;;;;;5117140;28;20045;-59
2022/10/09 02:06:10;;;;;;;6.18;5.13;;;8.80;99.90;;;;;;5066231;27;20024;-59
2022/10/09 02:08:37;;;;;;;9.48;5.65;;;8.80;99.90;;;;;;5115973;27;20039;-58
2022/10/09 02:11:03;;;;;;;8.20;5.40;;;8.80;99.90;;;;;;5054943;27;20031;-60
2022/10/09 02:13:31;;;;;;;9.52;5.63;;;8.80;99.90;;;;;;5020193;28;20030;-57
2022/10/09 02:16:21;;;;;;;7.75;6.18;;;8.70;99.90;;;;;;5062381;27;20030;-57
2022/10/09 02:19:00;;;;;;;8.68;6.03;;;8.70;99.90;;;;;;5126791;27;20804;-58
2022/10/09 02:21:41;;;;;;;8.77;6.05;;;8.70;99.90;;;;;;5078393;27;20026;-59
2022/10/09 02:24:11;;;;;;;10.10;5.65;;;8.70;99.90;;;;;;5031367;27;20037;-55
2022/10/09 02:26:37;;;;;;;6.80;5.60;;;8.60;99.90;;;;;;5082702;27;20032;-59
2022/10/09 02:29:03;;;;;;;8.82;5.90;;;8.60;99.90;;;;;;5024675;27;20033;-57
2022/10/09 02:31:30;;;;;;;8.57;5.18;;;8.60;99.90;;;;;;5087772;27;20104;-58
2022/10/09 02:34:05;;;;;;;6.75;4.53;;;8.60;99.90;;;;;;5024426;28;20034;-56
2022/10/09 02:36:31;;;;;;;8.38;4.88;;;8.60;99.90;;;;;;5088884;27;20023;-58
2022/10/09 02:38:58;;;;;;;7.20;4.72;;;8.60;99.90;;;;;;5024644;28;20018;-58
2022/10/09 02:41:24;;;;;;;8.13;4.90;;;8.60;99.90;;;;;;5088970;27;20118;-59
2022/10/09 02:43:50;;;;;;;6.68;4.65;;;8.60;99.90;;;;;;5003671;28;20030;-58
2022/10/09 02:46:16;;;;;;;9.30;5.55;;;8.60;99.90;;;;;;5070078;27;20418;-59
2022/10/09 02:48:41;;;;;;;10.57;4.68;;;8.60;99.90;;;;;;5037012;27;20041;-59
2022/10/09 02:51:07;;;;;;;8.68;4.88;;;8.50;99.90;;;;;;5062163;27;20532;-58
2022/10/09 02:53:33;;;;;;;7.15;4.47;;;8.50;99.90;;;;;;5050471;27;20090;-54
2022/10/09 02:55:58;;;;;;;6.82;4.63;;;8.50;99.90;;;;;;5048776;27;20319;-57
2022/10/09 02:58:25;;;;;;;8.35;4.70;;;8.50;99.90;;;;;;5062395;27;20030;-59
2022/10/09 03:00:52;;;;;;;7.80;5.25;;;8.50;99.90;;;;;;5035750;27;20026;-59
2022/10/09 03:03:19;;;;;;;7.88;4.68;;;8.40;99.90;;;;;;5074324;27;20050;-58
2022/10/09 03:05:45;;;;;;;6.80;4.75;;;8.50;99.90;;;;;;5030503;27;20166;-58
2022/10/09 03:08:11;;;;;;;9.85;4.75;;;8.40;99.90;;;;;;5081103;27;20488;-58
2022/10/09 03:10:38;;;;;;;6.10;4.50;;;8.40;99.90;;;;;;5029446;27;20032;-59
2022/10/09 03:13:04;;;;;;;7.75;4.95;;;8.40;99.90;;;;;;5080004;27;20038;-59
2022/10/09 03:15:33;;;;;;;5.72;4.35;;;8.40;99.90;;;;;;5023123;28;20033;-60
2022/10/09 03:17:59;;;;;;;6.20;4.65;;;8.40;99.90;;;;;;5088344;27;20033;-59
2022/10/09 03:20:24;;;;;;;6.15;4.55;;;8.30;99.90;;;;;;5023557;28;20111;-59
2022/10/09 03:22:50;;;;;;;8.30;4.60;;;8.30;99.90;;;;;;5088835;27;20527;-56
2022/10/09 03:25:16;;;;;;;8.52;4.20;;;8.30;99.90;;;;;;5021442;28;20604;-59
2022/10/09 03:27:41;;;;;;;7.65;4.60;;;8.30;99.90;;;;;;5076937;27;20031;-59
2022/10/09 03:30:07;;;;;;;7.63;5.00;;;8.30;99.90;;;;;;5032841;27;20021;-58
2022/10/09 03:32:33;;;;;;;8.45;4.80;;;8.30;99.90;;;;;;5063468;27;20343;-58
2022/10/09 03:34:58;;;;;;;6.80;4.07;;;8.20;99.90;;;;;;5046421;27;20491;-59
2022/10/09 03:37:24;;;;;;;7.20;4.93;;;8.30;99.90;;;;;;5049932;27;20020;-58
2022/10/09 03:39:50;;;;;;;8.18;4.35;;;8.30;99.90;;;;;;5060239;27;20095;-52
2022/10/09 03:42:15;;;;;;;5.93;4.47;;;8.20;99.90;;;;;;5036543;27;20273;-58
2022/10/09 03:44:41;;;;;;;6.85;4.28;;;8.20;99.90;;;;;;5074292;27;20506;-58
2022/10/09 03:47:07;;;;;;;4.78;4.00;;;8.20;99.90;;;;;;5028633;27;20496;-57
2022/10/09 03:49:32;;;;;;;6.20;4.00;;;8.20;99.90;;;;;;5081779;27;20025;-57
2022/10/09 03:51:58;;;;;;;6.38;4.32;;;8.20;99.90;;;;;;5028286;27;20034;-56
2022/10/09 03:54:23;;;;;;;6.18;4.00;;;8.10;99.90;;;;;;5080581;27;20033;-59
2022/10/09 03:56:49;;;;;;;8.02;4.30;;;8.20;99.90;;;;;;5022914;28;20053;-59
2022/10/09 03:59:14;;;;;;;9.10;5.40;;;8.10;99.90;;;;;;5087022;27;20043;-58
2022/10/09 04:01:40;;;;;;;6.60;4.30;;;8.10;99.90;;;;;;5021849;28;20772;-57
2022/10/09 04:04:05;;;;;;;5.72;4.43;;;8.10;99.90;;;;;;5085572;27;20062;-60
2022/10/09 04:06:31;;;;;;;7.38;4.20;;;8.20;99.90;;;;;;5024311;27;20026;-58
2022/10/09 04:08:56;;;;;;;10.95;4.50;;;8.10;99.90;;;;;;5070911;27;20766;-55
2022/10/09 04:11:25;;;;;;;6.28;4.43;;;8.10;99.90;;;;;;5057057;27;20070;-57
2022/10/09 04:13:50;;;;;;;5.22;4.20;;;8.10;99.90;;;;;;5088862;27;20108;-57
2022/10/09 04:16:16;;;;;;;7.97;4.50;;;8.10;99.90;;;;;;5098070;27;20023;-58
2022/10/09 04:18:43;;;;;;;7.07;4.28;;;8.10;99.90;;;;;;5103383;27;20429;-56
2022/10/09 04:21:09;;;;;;;5.78;4.38;;;8.10;99.90;;;;;;5084083;27;20079;-58
2022/10/09 04:23:34;;;;;;;6.10;4.20;;;8.10;99.90;;;;;;5115219;27;20031;-58
2022/10/09 04:26:00;;;;;;;6.60;4.70;;;8.00;99.90;;;;;;5071525;27;20027;-58
2022/10/09 04:28:28;;;;;;;6.15;4.47;;;8.10;99.90;;;;;;5117718;27;20072;-59
2022/10/09 04:30:53;;;;;;;6.45;4.28;;;8.00;99.90;;;;;;5068210;27;20023;-57
2022/10/09 04:33:19;;;;;;;7.15;4.65;;;8.00;99.90;;;;;;5120656;27;20027;-59
2022/10/09 04:35:50;;;;;;;6.97;4.35;;;8.00;99.90;;;;;;5063244;27;20030;-58
2022/10/09 04:38:15;;;;;;;5.47;4.07;;;8.00;99.90;;;;;;5124183;27;20088;-59
2022/10/09 04:40:41;;;;;;;6.85;4.28;;;8.00;99.90;;;;;;5059907;27;20053;-53
2022/10/09 04:43:06;;;;;;;8.38;4.35;;;8.00;99.90;;;;;;5124294;27;20405;-58
2022/10/09 04:45:32;;;;;;;6.20;4.38;;;7.90;99.90;;;;;;5060481;27;20487;-56
2022/10/09 04:47:57;;;;;;;6.95;4.30;;;7.90;99.90;;;;;;5002762;28;20472;-60
2022/10/09 04:50:23;;;;;;;6.97;4.32;;;7.90;99.90;;;;;;5066482;27;20053;-58
2022/10/09 04:52:49;;;;;;;6.90;4.50;;;7.90;99.90;;;;;;5035493;27;20022;-57
2022/10/09 04:55:14;;;;;;;8.88;4.40;;;7.90;99.90;;;;;;5059092;27;20492;-53
2022/10/09 04:57:40;;;;;;;6.18;4.40;;;7.90;99.90;;;;;;5047865;27;20437;-58
2022/10/09 05:00:06;;;;;;;5.95;4.40;;;7.90;99.90;;;;;;5044674;27;20019;-59
2022/10/09 05:02:31;;;;;;;7.57;5.05;;;7.90;99.90;;;;;;5061545;27;20040;-55
2022/10/09 05:04:57;;;;;;;9.68;6.18;;;7.80;99.90;;;;;;5031043;27;20045;-58
2022/10/09 05:07:23;;;;;;;10.77;6.47;;;7.80;99.90;;;;;;5075247;27;20107;-59
2022/10/09 05:09:49;;;;;;;10.75;6.07;;;7.80;99.90;;;;;;5028899;27;20027;-58
2022/10/09 05:12:15;;;;;;;11.52;6.78;;;7.80;99.90;;;;;;5110142;27;20026;-57
2022/10/09 05:14:40;;;;;;;14.13;7.65;;;7.80;99.90;;;;;;5122064;27;20019;-53
2022/10/09 05:17:06;;;;;;;19.60;9.68;;;7.80;99.90;;;;;;5062402;27;20034;-59
2022/10/09 05:19:32;;;;;;;25.52;12.05;;;7.70;99.90;;;;;;5125068;27;20031;-57
2022/10/09 05:21:59;;;;;;;29.60;12.77;;;7.70;99.90;;;;;;5059873;27;20045;-58
2022/10/09 05:24:24;;;;;;;31.25;13.15;;;7.70;99.90;;;;;;5124457;27;20100;-57
2022/10/09 05:26:50;;;;;;;33.60;14.45;;;7.70;99.90;;;;;;5063380;27;20037;-57
2022/10/09 05:29:15;;;;;;;29.13;12.68;;;7.70;99.90;;;;;;5115461;27;20023;-50
2022/10/09 05:31:42;;;;;;;25.95;11.48;;;7.60;99.90;;;;;;5068512;27;20030;-57
2022/10/09 05:34:08;;;;;;;25.98;10.75;;;7.70;99.90;;;;;;5037352;27;20030;-58
2022/10/09 05:36:33;;;;;;;25.95;10.68;;;7.60;99.90;;;;;;5056093;27;20373;-56
2022/10/09 05:39:00;;;;;;;20.90;9.82;;;7.60;99.90;;;;;;5051010;27;20030;-56
2022/10/09 05:41:27;;;;;;;21.10;9.00;;;7.60;99.90;;;;;;5042172;27;20027;-60
2022/10/09 05:43:52;;;;;;;17.13;9.23;;;7.60;99.90;;;;;;5063209;27;20037;-58
2022/10/09 05:46:22;;;;;;;17.35;8.88;;;7.60;99.90;;;;;;5028661;28;20013;-55
2022/10/09 05:48:56;;;;;;;13.02;7.90;;;7.60;99.90;;;;;;5073518;27;20068;-54
2022/10/09 05:51:22;;;;;;;11.23;7.30;;;7.60;99.90;;;;;;5027762;27;20025;-55
2022/10/09 05:53:48;;;;;;;12.32;7.53;;;7.60;99.90;;;;;;5077978;27;20122;-58
2022/10/09 05:56:18;;;;;;;10.27;6.97;;;7.60;99.90;;;;;;5027314;28;20551;-60
2022/10/09 05:58:49;;;;;;;11.25;7.22;;;7.60;99.90;;;;;;5078458;27;20074;-57
2022/10/09 06:01:15;;;;;;;12.20;6.18;;;7.60;99.90;;;;;;5023959;28;20057;-54
2022/10/09 06:03:41;;;;;;;7.93;5.60;;;7.60;99.90;;;;;;5081569;28;20512;-56
2022/10/09 06:06:07;;;;;;;7.13;5.10;;;7.60;99.90;;;;;;5019783;28;20578;-57
2022/10/09 06:08:35;;;;;;;5.88;4.68;;;7.60;99.90;;;;;;5085101;28;20750;-57
2022/10/09 06:11:09;;;;;;;8.43;5.03;;;7.50;99.90;;;;;;5020573;28;20395;-59
2022/10/09 06:13:34;;;;;;;6.10;4.35;;;7.50;99.90;;;;;;5085154;27;20120;-55
2022/10/09 06:16:00;;;;;;;7.00;4.25;;;7.50;99.90;;;;;;5021102;28;20037;-55
2022/10/09 06:18:26;;;;;;;7.10;4.10;;;7.60;99.90;;;;;;5074997;28;20038;-53
2022/10/09 06:20:57;;;;;;;6.07;4.28;;;7.60;99.90;;;;;;5025307;27;20022;-56
2022/10/09 06:23:23;;;;;;;6.20;4.00;;;7.60;99.90;;;;;;5015353;28;20024;-56
2022/10/09 06:26:00;;;;;;;5.30;4.18;;;7.60;99.90;;;;;;5010623;28;20376;-56
2022/10/09 06:28:28;;;;;;;7.10;4.13;;;7.60;99.90;;;;;;5035556;28;20092;-58
2022/10/09 06:30:58;;;;;;;6.35;3.83;;;7.60;99.90;;;;;;5008847;28;20020;-57
2022/10/09 06:33:24;;;;;;;8.07;4.10;;;7.70;99.90;;;;;;5011113;28;20033;-57
2022/10/09 06:35:49;;;;;;;7.22;4.07;;;7.60;99.90;;;;;;5004927;28;20033;-53
2022/10/09 06:38:16;;;;;;;8.05;4.18;;;7.70;99.90;;;;;;5035577;28;20037;-53
2022/10/09 06:40:42;;;;;;;7.47;3.83;;;7.70;99.90;;;;;;5015104;28;20032;-56
2022/10/09 06:43:07;;;;;;;8.65;4.30;;;7.70;99.90;;;;;;5012750;28;20022;-56
2022/10/09 06:45:36;;;;;;;6.38;4.18;;;7.80;99.90;;;;;;5055363;28;20037;-53
2022/10/09 06:48:02;;;;;;;5.68;3.97;;;7.80;99.90;;;;;;5009038;28;20476;-51
2022/10/09 06:50:27;;;;;;;6.90;4.10;;;7.80;99.90;;;;;;5085737;28;20087;-55
2022/10/09 06:52:53;;;;;;;5.50;3.97;;;7.80;99.90;;;;;;5032440;28;20044;-52
2022/10/09 06:55:18;;;;;;;5.20;4.05;;;7.90;99.90;;;;;;5042504;28;20055;-54
2022/10/09 06:57:44;;;;;;;7.22;4.13;;;7.90;99.90;;;;;;5011600;28;20122;-56
2022/10/09 07:00:10;;;;;;;6.00;4.20;;;7.90;99.90;;;;;;5031596;27;20040;-56
2022/10/09 07:02:36;;;;;;;5.05;3.90;;;7.90;99.90;;;;;;5009790;27;20042;-54
2022/10/09 07:05:01;;;;;;;6.85;3.70;;;7.90;99.90;;;;;;5036774;27;20041;-56
2022/10/09 07:07:27;;;;;;;9.00;3.78;;;8.00;99.90;;;;;;5057375;27;20045;-54
2022/10/09 07:09:53;;;;;;;5.72;3.40;;;8.00;99.90;;;;;;5032376;27;20086;-56
2022/10/09 07:12:18;;;;;;;6.45;3.70;;;8.10;99.90;;;;;;5045314;27;20030;-56
2022/10/09 07:14:44;;;;;;;4.32;3.58;;;8.10;99.90;;;;;;5034118;27;20074;-56
2022/10/09 07:17:09;;;;;;;5.78;3.88;;;8.10;99.90;;;;;;5050188;27;20052;-51
2022/10/09 07:19:35;;;;;;;7.53;3.92;;;8.20;99.90;;;;;;5025925;27;20022;-52
2022/10/09 07:22:00;;;;;;;6.47;3.85;;;8.20;99.90;;;;;;5065471;27;20559;-53
2022/10/09 07:24:26;;;;;;;5.03;3.35;;;8.30;99.90;;;;;;5027390;27;20027;-57
2022/10/09 07:26:58;;;;;;;6.50;3.70;;;8.30;99.90;;;;;;5066794;27;20036;-55
2022/10/09 07:29:23;;;;;;;5.65;3.47;;;8.30;99.90;;;;;;5012006;27;20122;-57
2022/10/09 07:31:49;;;;;;;4.32;3.17;;;8.40;99.90;;;;;;5094657;27;20715;-58
2022/10/09 07:34:15;;;;;;;5.82;3.72;;;8.40;99.90;;;;;;5046105;27;20030;-53
2022/10/09 07:36:40;;;;;;;6.25;3.08;;;8.50;99.90;;;;;;5084914;27;20019;-55
2022/10/09 07:39:06;;;;;;;6.30;3.50;;;8.50;99.90;;;;;;5055574;27;20053;-53
2022/10/09 07:41:32;;;;;;;6.82;3.88;;;8.50;99.90;;;;;;5068618;27;20519;-56
2022/10/09 07:43:58;;;;;;;5.30;3.10;;;8.60;99.90;;;;;;5066724;27;20808;-57
2022/10/09 07:46:25;;;;;;;5.75;3.10;;;8.60;99.90;;;;;;5059886;27;20029;-53
2022/10/09 07:48:51;;;;;;;7.28;3.67;;;8.70;99.90;;;;;;5068792;27;20034;-57
2022/10/09 07:51:21;;;;;;;4.88;3.50;;;8.70;99.90;;;;;;5057114;27;20030;-55
2022/10/09 07:53:47;;;;;;;5.20;3.45;;;8.80;99.90;;;;;;5065998;27;20032;-52
2022/10/09 07:56:24;;;;;;;5.82;3.45;;;8.80;99.90;;;;;;5041865;27;20121;-53
2022/10/09 07:58:51;;;;;;;3.88;3.35;;;8.90;99.90;;;;;;5062518;27;20036;-56
2022/10/09 08:01:18;;;;;;;5.82;3.38;;;8.90;99.90;;;;;;5042489;27;20048;-54
2022/10/09 08:03:43;;;;;;;6.53;3.00;;;8.90;99.90;;;;;;5052079;27;20045;-56
2022/10/09 08:06:09;;;;;;;6.18;3.70;;;9.00;99.90;;;;;;5036261;27;20026;-55
2022/10/09 08:08:35;;;;;;;4.72;3.53;;;9.00;99.90;;;;;;5066784;27;20029;-56
2022/10/09 08:11:07;;;;;;;5.75;3.55;;;9.00;99.90;;;;;;5028203;27;20029;-56
2022/10/09 08:13:33;;;;;;;5.45;3.47;;;9.10;99.90;;;;;;5029574;27;20113;-55
2022/10/09 08:15:58;;;;;;;4.88;3.30;;;9.10;99.90;;;;;;5023394;27;20735;-58
2022/10/09 08:18:24;;;;;;;4.97;3.40;;;9.20;99.90;;;;;;5020626;27;20025;-55
2022/10/09 08:21:01;;;;;;;8.25;4.05;;;9.20;99.90;;;;;;5014634;27;20459;-56
2022/10/09 08:23:27;;;;;;;4.30;3.70;;;9.30;99.90;;;;;;5030983;27;20026;-57
2022/10/09 08:25:53;;;;;;;6.28;3.80;;;9.30;99.90;;;;;;5011170;28;20030;-56
2022/10/09 08:28:22;;;;;;;4.60;3.42;;;9.40;99.90;;;;;;5035392;27;20754;-55
2022/10/09 08:30:47;;;;;;;5.22;3.97;;;9.50;99.90;;;;;;5019095;28;20108;-55
2022/10/09 08:33:13;;;;;;;7.28;3.45;;;9.50;99.90;;;;;;5018235;27;20403;-58
2022/10/09 08:35:39;;;;;;;8.02;3.92;;;9.50;99.90;;;;;;5020299;28;20116;-56
2022/10/09 08:38:04;;;;;;;8.15;3.88;;;9.60;99.90;;;;;;5019275;27;20274;-55
2022/10/09 08:40:43;;;;;;;6.13;3.92;;;9.70;99.90;;;;;;5020515;27;20026;-54
2022/10/09 08:43:13;;;;;;;5.18;3.78;;;9.80;99.90;;;;;;5039003;27;20048;-55
2022/10/09 08:45:41;;;;;;;5.72;3.88;;;9.90;99.90;;;;;;5040961;27;20022;-57
2022/10/09 08:48:13;;;;;;;6.85;4.07;;;9.90;99.90;;;;;;5029918;27;20026;-57
2022/10/09 08:50:45;;;;;;;6.60;3.80;;;10.00;99.90;;;;;;5036176;27;20460;-53
2022/10/09 08:53:25;;;;;;;4.97;3.90;;;10.10;99.90;;;;;;5027019;27;20026;-56
2022/10/09 08:55:58;;;;;;;6.97;4.10;;;10.20;99.90;;;;;;5031816;27;20090;-53
2022/10/09 08:58:31;;;;;;;7.30;3.88;;;10.20;99.90;;;;;;5023107;27;20174;-56
2022/10/09 09:01:45;;;;;;;6.32;3.67;;;10.30;99.90;;;;;;5040115;27;20021;-55
2022/10/09 09:04:32;;;;;;;6.63;4.05;;;10.40;99.90;;;;;;5058502;28;20421;-53
2022/10/09 09:07:22;;;;;;;6.43;3.55;;;10.50;99.90;;;;;;5060476;28;20174;-55
2022/10/09 09:10:04;;;;;;;6.20;3.38;;;10.60;99.90;;;;;;5039722;27;20120;-58
2022/10/09 09:12:47;;;;;;;5.20;3.30;;;10.70;99.90;;;;;;5005960;27;20769;-56
2022/10/09 09:15:19;;;;;;;4.97;3.55;;;10.80;99.90;;;;;;5072727;27;20033;-53
2022/10/09 09:17:44;;;;;;;5.40;3.20;;;10.90;99.90;;;;;;5002084;27;20041;-57
2022/10/09 09:20:15;;;;;;;7.28;3.85;;;10.90;99.90;;;;;;5041595;27;20022;-55
2022/10/09 09:22:45;;;;;;;5.82;3.58;;;11.00;99.90;;;;;;5018208;27;20034;-53
2022/10/09 09:25:25;;;;;;;5.72;3.60;;;11.10;99.90;;;;;;5023892;27;20023;-54
2022/10/09 09:27:53;;;;;;;6.30;3.85;;;11.20;99.90;;;;;;5005265;28;20040;-49
2022/10/09 09:30:28;;;;;;;5.80;3.70;;;11.20;99.90;;;;;;5055685;27;20022;-54
2022/10/09 09:33:03;;;;;;;8.20;3.67;;;11.30;99.90;;;;;;5028697;27;20121;-54
2022/10/09 09:35:54;;;;;;;7.05;2.67;;;11.40;99.90;;;;;;5034615;27;20121;-53
2022/10/09 09:38:19;;;;;;;3.72;2.92;;;11.50;99.90;;;;;;4999673;28;20037;-50
2022/10/09 09:40:45;;;;;;;6.30;3.33;;;11.60;99.90;;;;;;5039772;27;20027;-54
2022/10/09 09:43:18;;;;;;;5.38;3.38;;;11.70;99.90;;;;;;5005130;27;20391;-54
2022/10/09 09:45:44;;;;;;;7.28;3.30;;;11.70;99.90;;;;;;5024869;27;20018;-56
2022/10/09 09:48:36;;;;;;;5.13;3.20;;;11.80;99.90;;;;;;5017642;27;20030;-55
2022/10/09 09:51:05;;;;;;;6.82;3.70;;;11.90;99.90;;;;;;5043053;27;20036;-59
2022/10/09 09:53:36;;;;;;;7.68;3.28;;;11.90;99.90;;;;;;5014516;27;20061;-58
2022/10/09 09:56:02;;;;;;;6.18;3.03;;;11.90;99.90;;;;;;5048402;27;20049;-58
2022/10/09 09:58:43;;;;;;;8.55;3.25;;;12.00;99.90;;;;;;5083016;27;20032;-58
2022/10/09 10:01:28;;;;;;;7.00;3.17;;;12.10;99.90;;;;;;5048305;28;20040;-58
2022/10/09 10:03:57;;;;;;;6.40;3.53;;;12.10;99.90;;;;;;5069237;27;20145;-55
2022/10/09 10:06:31;;;;;;;6.47;3.35;;;12.20;99.90;;;;;;5046517;28;20037;-54
2022/10/09 10:09:17;;;;;;;5.22;3.05;;;12.20;99.90;;;;;;5071028;27;20048;-56
2022/10/09 10:12:14;;;;;;;6.97;3.50;;;12.30;99.90;;;;;;5047657;28;20026;-57
2022/10/09 10:14:49;;;;;;;7.63;3.83;;;12.30;99.90;;;;;;5002589;28;20042;-52
2022/10/09 10:17:27;;;;;;;4.30;3.08;;;12.40;99.90;;;;;;5069958;28;20056;-53
2022/10/09 10:19:52;;;;;;;3.50;2.70;;;12.40;99.90;;;;;;5004645;28;20126;-56
2022/10/09 10:22:26;;;;;;;7.68;3.33;;;12.40;99.90;;;;;;5082090;28;20058;-57
2022/10/09 10:24:56;;;;;;;5.80;2.75;;;12.50;99.90;;;;;;5019219;28;20033;-57
2022/10/09 10:27:34;;;;;;;7.68;3.20;;;12.50;99.90;;;;;;5092064;28;20043;-58
2022/10/09 10:30:03;;;;;;;4.78;2.67;;;12.50;99.90;;;;;;5019123;28;20388;-57
2022/10/09 10:32:34;;;;;;;4.18;2.53;;;12.60;99.90;;;;;;5043700;28;20020;-56
2022/10/09 10:35:10;;;;;;;3.13;2.30;;;12.70;99.90;;;;;;5019021;28;20541;-57
2022/10/09 10:37:54;;;;;;;4.53;2.45;;;12.70;99.90;;;;;;5040121;27;20017;-58
2022/10/09 10:40:29;;;;;;;4.35;2.70;;;12.90;99.90;;;;;;5016492;28;20117;-55
2022/10/09 10:43:00;;;;;;;3.85;1.98;;;13.00;99.90;;;;;;5050562;27;20477;-56
2022/10/09 10:45:43;;;;;;;3.13;2.30;;;13.10;99.90;;;;;;5002586;28;20198;-59
2022/10/09 10:48:15;;;;;;;;;;;13.20;99.90;;;;;;5037572;27;20425;-60
2022/10/09 10:50:48;;;;;;;4.38;2.30;;;13.20;99.90;;;;;;5002758;28;20001;-59
2022/10/09 10:53:43;;;;;;;4.00;2.10;;;13.30;99.90;;;;;;5055578;27;20011;-58
2022/10/09 10:56:29;;;;;;;4.40;2.08;;;13.30;99.90;;;;;;5010535;27;20124;-60
2022/10/09 10:59:00;;;;;;;3.28;2.15;;;13.40;99.90;;;;;;5091302;27;20041;-59
2022/10/09 11:01:40;;;;;;;5.70;2.45;;;13.50;99.90;;;;;;5016372;27;20271;-58
2022/10/09 11:04:33;;;;;;;3.58;2.58;;;13.50;99.90;;;;;;5088161;27;20062;-57
2022/10/09 11:07:50;;;;;;;5.45;2.90;;;13.60;99.90;;;;;;5022555;27;20454;-59
2022/10/09 11:10:36;;;;;;;6.93;2.45;;;13.70;99.90;;;;;;5053351;27;20045;-58
2022/10/09 11:13:08;;;;;;;5.15;2.88;;;13.80;99.90;;;;;;5076583;27;20084;-56
2022/10/09 11:16:05;;;;;;;3.23;1.97;;;13.80;99.90;;;;;;5052039;27;20133;-59
2022/10/09 11:19:16;;;;;;;3.80;2.47;;;13.80;99.90;;;;;;5080900;27;20095;-58
2022/10/09 11:22:00;;;;;;;3.25;2.30;;;13.80;99.90;;;;;;5014850;28;20095;-57
2022/10/09 11:25:01;;;;;;;4.47;2.67;;;13.80;99.90;;;;;;5085800;27;20023;-59
2022/10/09 11:27:54;;;;;;;5.03;2.70;;;13.90;99.90;;;;;;5016919;27;20439;-55
2022/10/09 11:30:25;;;;;;;;;;;14.00;99.90;;;;;;5059185;27;20107;-57
2022/10/09 11:33:21;;;;;;;3.53;2.42;;;14.10;99.90;;;;;;5030397;27;19905;-57
2022/10/09 11:35:54;;;;;;;3.95;2.28;;;14.10;99.90;;;;;;5016081;27;20045;-58
2022/10/09 11:38:25;;;;;;;3.15;1.88;;;14.20;99.90;;;;;;5029276;27;20041;-59
2022/10/09 11:40:51;;;;;;;3.03;1.90;;;14.20;99.90;;;;;;5020608;28;20029;-56
2022/10/09 11:43:27;;;;;;;4.55;2.13;;;14.30;99.90;;;;;;5028134;27;20662;-58
2022/10/09 11:46:27;;;;;;;3.78;1.90;;;14.40;99.90;;;;;;5026276;27;20087;-58
2022/10/09 11:49:32;;;;;;;3.08;2.08;;;14.50;99.90;;;;;;5037303;27;20045;-56
2022/10/09 11:52:07;;;;;;;4.35;2.50;;;14.50;99.90;;;;;;5017565;28;20560;-56
2022/10/09 11:54:33;;;;;;;4.30;2.42;;;14.60;99.90;;;;;;5029222;27;20853;-57
2022/10/09 11:57:02;;;;;;;3.60;1.70;;;14.60;99.90;;;;;;5033605;27;20087;-56
2022/10/09 11:59:35;;;;;;;3.75;2.00;;;14.60;99.90;;;;;;5037458;27;20480;-59
2022/10/09 12:02:21;;;;;;;;;;;14.60;99.90;;;;;;5049070;27;20040;-57
2022/10/09 12:04:47;;;;;;;5.22;1.85;;;14.70;99.90;;;;;;5037255;27;20427;-57
2022/10/09 12:07:32;;;;;;;3.80;1.90;;;14.70;99.90;;;;;;5044543;27;20025;-58
2022/10/09 12:10:20;;;;;;;4.47;2.10;;;14.70;99.90;;;;;;5028495;27;20078;-56
2022/10/09 12:12:55;;;;;;;3.40;1.83;;;14.80;99.90;;;;;;5049997;27;20026;-58
2022/10/09 12:15:35;;;;;;;5.10;1.90;;;14.90;99.90;;;;;;5015938;27;20057;-58
2022/10/09 12:18:23;;;;;;;2.78;1.67;;;15.00;99.90;;;;;;5002290;28;20492;-58
2022/10/09 12:20:50;;;;;;;3.42;1.80;;;15.00;99.90;;;;;;5081877;27;20072;-58
2022/10/09 12:23:22;;;;;;;4.25;1.75;;;15.00;99.90;;;;;;5001093;28;20026;-57
2022/10/09 12:25:48;;;;;;;3.80;1.92;;;15.10;99.90;;;;;;5051918;27;20108;-59
2022/10/09 12:28:29;;;;;;;2.33;1.58;;;15.10;99.90;;;;;;5066730;27;20061;-58
2022/10/09 12:30:58;;;;;;;3.55;1.60;;;15.20;99.90;;;;;;5047333;27;20094;-58
2022/10/09 12:33:37;;;;;;;3.17;1.65;;;15.20;99.90;;;;;;5058352;27;20030;-57
2022/10/09 12:36:13;;;;;;;4.60;1.65;;;15.20;99.90;;;;;;5048405;27;20430;-59
2022/10/09 12:38:39;;;;;;;6.20;1.90;;;15.30;99.90;;;;;;5056530;27;20479;-58
2022/10/09 12:41:11;;;;;;;2.42;1.40;;;15.30;99.90;;;;;;5044892;27;20033;-57
2022/10/09 12:43:43;;;;;;;2.60;1.40;;;15.30;99.90;;;;;;5053081;27;20035;-56
2022/10/09 12:46:09;;;;;;;3.72;1.60;;;15.30;99.90;;;;;;5059188;27;20027;-58
2022/10/09 12:48:38;;;;;;;2.80;1.45;;;15.40;99.90;;;;;;5046517;27;20110;-56
2022/10/09 12:51:15;;;;;;;2.55;1.30;;;15.40;99.90;;;;;;5029837;27;20026;-58
2022/10/09 12:53:48;;;;;;;2.50;1.50;;;15.50;99.90;;;;;;5014985;27;20018;-56
2022/10/09 12:56:23;;;;;;;4.38;1.70;;;15.50;99.90;;;;;;5043908;27;20023;-63
2022/10/09 12:58:49;;;;;;;3.78;1.55;;;15.60;99.90;;;;;;5029244;28;20101;-58
2022/10/09 13:01:15;;;;;;;2.10;1.30;;;15.60;99.90;;;;;;5041112;27;20036;-57
2022/10/09 13:03:51;;;;;;;2.45;1.40;;;15.60;99.90;;;;;;5026772;27;20155;-55
2022/10/09 13:06:21;;;;;;;2.30;1.45;;;15.70;99.90;;;;;;5024529;27;20035;-57
2022/10/09 13:09:01;;;;;;;3.90;1.45;;;15.70;99.90;;;;;;5012498;27;20080;-58
2022/10/09 13:11:32;;;;;;;5.60;1.50;;;15.70;99.90;;;;;;5031817;27;20778;-59
2022/10/09 13:13:57;;;;;;;2.50;1.30;;;15.80;99.90;;;;;;5076096;27;20082;-57